sensor_id;sensor_type;location;lat;lon;timestamp;temperature;humidity
20700;DHT22;10511;51.232;9.420;2024-01-25T00:01:15;8.20;99.90
20700;DHT22;10511;51.232;9.420;2024-01-25T00:03:42;8.20;99.90
20700;DHT22;10511;51.232;9.420;2024-01-25T00:06:09;8.30;99.90
20700;DHT22;10511;51.232;9.420;2024-01-25T00:08:37;8.20;99.90
20700;DHT22;10511;51.232;9.420;2024-01-25T00:11:04;8.20;99.90
20700;DHT22;10511;51.232;9.420;2024-01-25T00:13:32;8.20;99.90
20700;DHT22;10511;51.232;9.420;2024-01-25T00:15:59;8.20;99.90
20700;DHT22;10511;51.232;9.420;2024-01-25T00:18:26;8.20;99.90
20700;DHT22;10511;51.232;9.420;2024-01-25T00:20:55;8.20;99.90
20700;DHT22;10511;51.232;9.420;2024-01-25T00:23:22;8.20;99.90
20700;DHT22;10511;51.232;9.420;2024-01-25T00:25:50;8.10;99.90
20700;DHT22;10511;51.232;9.420;2024-01-25T00:28:17;8.20;99.90
20700;DHT22;10511;51.232;9.420;2024-01-25T00:30:44;8.10;99.90
20700;DHT22;10511;51.232;9.420;2024-01-25T00:33:10;8.10;99.90
20700;DHT22;10511;51.232;9.420;2024-01-25T00:35:38;8.20;99.90
20700;DHT22;10511;51.232;9.420;2024-01-25T00:38:05;8.20;99.90
20700;DHT22;10511;51.232;9.420;2024-01-25T00:40:33;8.10;99.90
20700;DHT22;10511;51.232;9.420;2024-01-25T00:43:02;8.10;99.90
20700;DHT22;10511;51.232;9.420;2024-01-25T00:45:29;8.10;99.90
20700;DHT22;10511;51.232;9.420;2024-01-25T00:47:56;8.10;99.90
20700;DHT22;10511;51.232;9.420;2024-01-25T00:50:24;8.10;99.90
20700;DHT22;10511;51.232;9.420;2024-01-25T00:52:52;8.10;99.90
20700;DHT22;10511;51.232;9.420;2024-01-25T00:55:19;8.00;99.90
20700;DHT22;10511;51.232;9.420;2024-01-25T00:57:46;8.00;99.90
20700;DHT22;10511;51.232;9.420;2024-01-25T01:00:16;8.10;99.90
20700;DHT22;10511;51.232;9.420;2024-01-25T01:02:44;8.00;99.90
20700;DHT22;10511;51.232;9.420;2024-01-25T01:05:12;8.10;99.90
20700;DHT22;10511;51.232;9.420;2024-01-25T01:07:40;8.10;99.90
20700;DHT22;10511;51.232;9.420;2024-01-25T01:10:08;8.10;99.90
20700;DHT22;10511;51.232;9.420;2024-01-25T01:12:36;8.10;99.90
20700;DHT22;10511;51.232;9.420;2024-01-25T01:15:04;8.10;99.90
20700;DHT22;10511;51.232;9.420;2024-01-25T01:17:33;8.10;99.90
20700;DHT22;10511;51.232;9.420;2024-01-25T01:20:00;8.10;99.90
20700;DHT22;10511;51.232;9.420;2024-01-25T01:22:27;8.10;99.90
20700;DHT22;10511;51.232;9.420;2024-01-25T01:24:54;8.00;99.90
20700;DHT22;10511;51.232;9.420;2024-01-25T01:27:21;8.10;99.90
20700;DHT22;10511;51.232;9.420;2024-01-25T01:29:48;8.10;99.90
20700;DHT22;10511;51.232;9.420;2024-01-25T01:32:15;8.10;99.90
20700;DHT22;10511;51.232;9.420;2024-01-25T01:34:44;8.00;99.90
20700;DHT22;10511;51.232;9.420;2024-01-25T01:37:11;8.00;99.90
20700;DHT22;10511;51.232;9.420;2024-01-25T01:39:38;8.00;99.90
20700;DHT22;10511;51.232;9.420;2024-01-25T01:42:05;8.00;99.90
20700;DHT22;10511;51.232;9.420;2024-01-25T01:44:32;8.00;99.90
20700;DHT22;10511;51.232;9.420;2024-01-25T01:46:59;8.00;99.90
20700;DHT22;10511;51.232;9.420;2024-01-25T01:49:26;7.90;99.90
20700;DHT22;10511;51.232;9.420;2024-01-25T01:51:54;7.90;99.90
20700;DHT22;10511;51.232;9.420;2024-01-25T01:54:22;7.90;99.90
20700;DHT22;10511;51.232;9.420;2024-01-25T01:56:49;7.90;99.90
20700;DHT22;10511;51.232;9.420;2024-01-25T01:59:16;7.90;99.90
20700;DHT22;10511;51.232;9.420;2024-01-25T02:01:43;7.90;99.90
20700;DHT22;10511;51.232;9.420;2024-01-25T02:04:10;7.90;99.90
20700;DHT22;10511;51.232;9.420;2024-01-25T02:06:37;7.90;99.90
20700;DHT22;10511;51.232;9.420;2024-01-25T02:09:06;7.90;99.90
20700;DHT22;10511;51.232;9.420;2024-01-25T02:11:35;7.90;99.90
20700;DHT22;10511;51.232;9.420;2024-01-25T02:14:02;7.80;99.90
20700;DHT22;10511;51.232;9.420;2024-01-25T02:16:29;7.80;99.90
20700;DHT22;10511;51.232;9.420;2024-01-25T02:18:56;7.80;99.90
20700;DHT22;10511;51.232;9.420;2024-01-25T02:21:23;7.70;99.90
20700;DHT22;10511;51.232;9.420;2024-01-25T02:23:51;7.70;99.90
20700;DHT22;10511;51.232;9.420;2024-01-25T02:26:18;7.70;99.90
20700;DHT22;10511;51.232;9.420;2024-01-25T02:28:45;7.70;99.90
20700;DHT22;10511;51.232;9.420;2024-01-25T02:31:11;7.60;99.90
20700;DHT22;10511;51.232;9.420;2024-01-25T02:33:38;7.60;99.90
20700;DHT22;10511;51.232;9.420;2024-01-25T02:36:06;7.60;99.90
20700;DHT22;10511;51.232;9.420;2024-01-25T02:38:32;7.60;99.90
20700;DHT22;10511;51.232;9.420;2024-01-25T02:41:01;7.60;99.90
20700;DHT22;10511;51.232;9.420;2024-01-25T02:43:27;7.50;99.90
20700;DHT22;10511;51.232;9.420;2024-01-25T02:45:54;7.50;99.90
20700;DHT22;10511;51.232;9.420;2024-01-25T02:48:21;7.40;99.90
20700;DHT22;10511;51.232;9.420;2024-01-25T02:50:48;7.40;99.90
20700;DHT22;10511;51.232;9.420;2024-01-25T02:53:15;7.50;99.90
20700;DHT22;10511;51.232;9.420;2024-01-25T02:55:41;7.40;99.90
20700;DHT22;10511;51.232;9.420;2024-01-25T02:58:10;7.50;99.90
20700;DHT22;10511;51.232;9.420;2024-01-25T03:00:36;7.50;99.90
20700;DHT22;10511;51.232;9.420;2024-01-25T03:03:03;7.50;99.90
20700;DHT22;10511;51.232;9.420;2024-01-25T03:05:30;7.50;99.90
20700;DHT22;10511;51.232;9.420;2024-01-25T03:07:57;7.50;99.90
20700;DHT22;10511;51.232;9.420;2024-01-25T03:10:24;7.40;99.90
20700;DHT22;10511;51.232;9.420;2024-01-25T03:12:51;7.40;99.90
20700;DHT22;10511;51.232;9.420;2024-01-25T03:15:19;7.40;99.90
20700;DHT22;10511;51.232;9.420;2024-01-25T03:17:46;7.40;99.90
20700;DHT22;10511;51.232;9.420;2024-01-25T03:20:13;7.40;99.90
20700;DHT22;10511;51.232;9.420;2024-01-25T03:22:40;7.40;99.90
20700;DHT22;10511;51.232;9.420;2024-01-25T03:25:08;7.30;99.90
20700;DHT22;10511;51.232;9.420;2024-01-25T03:27:35;7.30;99.90
20700;DHT22;10511;51.232;9.420;2024-01-25T03:30:03;7.30;99.90
20700;DHT22;10511;51.232;9.420;2024-01-25T03:32:33;7.30;99.90
20700;DHT22;10511;51.232;9.420;2024-01-25T03:34:59;7.30;99.90
20700;DHT22;10511;51.232;9.420;2024-01-25T03:37:26;7.30;99.90
20700;DHT22;10511;51.232;9.420;2024-01-25T03:39:53;7.20;99.90
20700;DHT22;10511;51.232;9.420;2024-01-25T03:42:20;7.30;99.90
20700;DHT22;10511;51.232;9.420;2024-01-25T03:44:47;7.30;99.90
20700;DHT22;10511;51.232;9.420;2024-01-25T03:47:14;7.30;99.90
20700;DHT22;10511;51.232;9.420;2024-01-25T03:49:42;7.20;99.90
20700;DHT22;10511;51.232;9.420;2024-01-25T03:52:09;7.30;99.90
20700;DHT22;10511;51.232;9.420;2024-01-25T03:54:35;7.30;99.90
20700;DHT22;10511;51.232;9.420;2024-01-25T03:57:03;7.30;99.90
20700;DHT22;10511;51.232;9.420;2024-01-25T03:59:30;7.20;99.90
20700;DHT22;10511;51.232;9.420;2024-01-25T04:01:57;7.20;99.90
20700;DHT22;10511;51.232;9.420;2024-01-25T04:04:24;7.30;99.90
20700;DHT22;10511;51.232;9.420;2024-01-25T04:06:52;7.30;99.90
20700;DHT22;10511;51.232;9.420;2024-01-25T04:09:19;7.30;99.90
20700;DHT22;10511;51.232;9.420;2024-01-25T04:11:46;7.30;99.90
20700;DHT22;10511;51.232;9.420;2024-01-25T04:14:12;7.30;99.90
20700;DHT22;10511;51.232;9.420;2024-01-25T04:16:39;7.30;99.90
20700;DHT22;10511;51.232;9.420;2024-01-25T04:19:06;7.30;99.90
20700;DHT22;10511;51.232;9.420;2024-01-25T04:21:33;7.30;99.90
20700;DHT22;10511;51.232;9.420;2024-01-25T04:24:01;7.30;99.90
20700;DHT22;10511;51.232;9.420;2024-01-25T04:26:28;7.20;99.90
20700;DHT22;10511;51.232;9.420;2024-01-25T04:28:55;7.20;99.90
20700;DHT22;10511;51.232;9.420;2024-01-25T04:31:21;7.10;99.90
20700;DHT22;10511;51.232;9.420;2024-01-25T04:33:48;7.00;99.90
20700;DHT22;10511;51.232;9.420;2024-01-25T04:36:15;7.10;99.90
20700;DHT22;10511;51.232;9.420;2024-01-25T04:38:42;7.10;99.90
20700;DHT22;10511;51.232;9.420;2024-01-25T04:41:10;7.10;99.90
20700;DHT22;10511;51.232;9.420;2024-01-25T04:43:37;7.10;99.90
20700;DHT22;10511;51.232;9.420;2024-01-25T04:46:04;7.10;99.90
20700;DHT22;10511;51.232;9.420;2024-01-25T04:48:31;7.10;99.90
20700;DHT22;10511;51.232;9.420;2024-01-25T04:50:58;7.10;99.90
20700;DHT22;10511;51.232;9.420;2024-01-25T04:53:25;7.10;99.90
20700;DHT22;10511;51.232;9.420;2024-01-25T04:55:54;7.00;99.90
20700;DHT22;10511;51.232;9.420;2024-01-25T04:58:22;7.10;99.90
20700;DHT22;10511;51.232;9.420;2024-01-25T05:00:49;7.10;99.90
20700;DHT22;10511;51.232;9.420;2024-01-25T05:03:18;7.10;99.90
20700;DHT22;10511;51.232;9.420;2024-01-25T05:05:45;7.00;99.90
20700;DHT22;10511;51.232;9.420;2024-01-25T05:08:11;7.10;99.90
20700;DHT22;10511;51.232;9.420;2024-01-25T05:10:38;7.00;99.90
20700;DHT22;10511;51.232;9.420;2024-01-25T05:13:05;7.00;99.90
20700;DHT22;10511;51.232;9.420;2024-01-25T05:15:33;7.10;99.90
20700;DHT22;10511;51.232;9.420;2024-01-25T05:18:00;7.10;99.90
20700;DHT22;10511;51.232;9.420;2024-01-25T05:20:27;7.00;99.90
20700;DHT22;10511;51.232;9.420;2024-01-25T05:22:58;7.00;99.90
20700;DHT22;10511;51.232;9.420;2024-01-25T05:25:24;7.00;99.90
20700;DHT22;10511;51.232;9.420;2024-01-25T05:27:53;7.00;99.90
20700;DHT22;10511;51.232;9.420;2024-01-25T05:30:20;6.90;99.90
20700;DHT22;10511;51.232;9.420;2024-01-25T05:32:48;6.90;99.90
20700;DHT22;10511;51.232;9.420;2024-01-25T05:35:15;7.00;99.90
20700;DHT22;10511;51.232;9.420;2024-01-25T05:37:42;7.00;99.90
20700;DHT22;10511;51.232;9.420;2024-01-25T05:40:10;7.00;99.90
20700;DHT22;10511;51.232;9.420;2024-01-25T05:42:38;7.00;99.90
20700;DHT22;10511;51.232;9.420;2024-01-25T05:45:06;7.00;99.90
20700;DHT22;10511;51.232;9.420;2024-01-25T05:47:34;6.90;99.90
20700;DHT22;10511;51.232;9.420;2024-01-25T05:50:03;6.90;99.90
20700;DHT22;10511;51.232;9.420;2024-01-25T05:52:30;6.90;99.90
20700;DHT22;10511;51.232;9.420;2024-01-25T05:54:57;7.00;99.90
20700;DHT22;10511;51.232;9.420;2024-01-25T05:57:24;6.90;99.90
20700;DHT22;10511;51.232;9.420;2024-01-25T05:59:51;6.90;99.90
20700;DHT22;10511;51.232;9.420;2024-01-25T06:02:18;6.90;99.90
20700;DHT22;10511;51.232;9.420;2024-01-25T06:04:45;6.90;99.90
20700;DHT22;10511;51.232;9.420;2024-01-25T06:07:13;6.90;99.90
20700;DHT22;10511;51.232;9.420;2024-01-25T06:09:40;6.90;99.90
20700;DHT22;10511;51.232;9.420;2024-01-25T06:12:07;6.90;99.90
20700;DHT22;10511;51.232;9.420;2024-01-25T06:14:34;6.90;99.90
20700;DHT22;10511;51.232;9.420;2024-01-25T06:17:01;6.90;99.90
20700;DHT22;10511;51.232;9.420;2024-01-25T06:19:28;6.80;99.90
20700;DHT22;10511;51.232;9.420;2024-01-25T06:21:55;6.80;99.90
20700;DHT22;10511;51.232;9.420;2024-01-25T06:24:23;6.80;99.90
20700;DHT22;10511;51.232;9.420;2024-01-25T06:26:50;6.80;99.90
20700;DHT22;10511;51.232;9.420;2024-01-25T06:29:17;6.80;99.90
20700;DHT22;10511;51.232;9.420;2024-01-25T06:31:44;6.70;99.90
20700;DHT22;10511;51.232;9.420;2024-01-25T06:34:11;6.70;99.90
20700;DHT22;10511;51.232;9.420;2024-01-25T06:36:38;6.70;99.90
20700;DHT22;10511;51.232;9.420;2024-01-25T06:39:05;6.70;99.90
20700;DHT22;10511;51.232;9.420;2024-01-25T06:41:33;6.80;99.90
20700;DHT22;10511;51.232;9.420;2024-01-25T06:44:00;6.70;99.90
20700;DHT22;10511;51.232;9.420;2024-01-25T06:46:28;6.70;99.90
20700;DHT22;10511;51.232;9.420;2024-01-25T06:48:55;6.80;99.90
20700;DHT22;10511;51.232;9.420;2024-01-25T06:51:22;6.80;99.90
20700;DHT22;10511;51.232;9.420;2024-01-25T06:53:49;6.80;99.90
20700;DHT22;10511;51.232;9.420;2024-01-25T06:56:16;6.80;99.90
20700;DHT22;10511;51.232;9.420;2024-01-25T06:58:45;6.80;99.90
20700;DHT22;10511;51.232;9.420;2024-01-25T07:01:12;6.70;99.90
20700;DHT22;10511;51.232;9.420;2024-01-25T07:03:39;6.70;99.90
20700;DHT22;10511;51.232;9.420;2024-01-25T07:06:06;6.70;99.90
20700;DHT22;10511;51.232;9.420;2024-01-25T07:08:33;6.70;99.90
20700;DHT22;10511;51.232;9.420;2024-01-25T07:11:00;6.70;99.90
20700;DHT22;10511;51.232;9.420;2024-01-25T07:13:27;6.60;99.90
20700;DHT22;10511;51.232;9.420;2024-01-25T07:15:55;6.60;99.90
20700;DHT22;10511;51.232;9.420;2024-01-25T07:18:22;6.60;99.90
20700;DHT22;10511;51.232;9.420;2024-01-25T07:20:50;6.50;99.90
20700;DHT22;10511;51.232;9.420;2024-01-25T07:23:17;6.50;99.90
20700;DHT22;10511;51.232;9.420;2024-01-25T07:25:44;6.50;99.90
20700;DHT22;10511;51.232;9.420;2024-01-25T07:28:11;6.50;99.90
20700;DHT22;10511;51.232;9.420;2024-01-25T07:30:37;6.50;99.90
20700;DHT22;10511;51.232;9.420;2024-01-25T07:33:06;6.50;99.90
20700;DHT22;10511;51.232;9.420;2024-01-25T07:35:33;6.50;99.90
20700;DHT22;10511;51.232;9.420;2024-01-25T07:38:01;6.50;99.90
20700;DHT22;10511;51.232;9.420;2024-01-25T07:40:27;6.50;99.90
20700;DHT22;10511;51.232;9.420;2024-01-25T07:42:54;6.50;99.90
20700;DHT22;10511;51.232;9.420;2024-01-25T07:45:21;6.50;99.90
20700;DHT22;10511;51.232;9.420;2024-01-25T07:47:48;6.50;99.90
20700;DHT22;10511;51.232;9.420;2024-01-25T07:50:16;6.50;99.90
20700;DHT22;10511;51.232;9.420;2024-01-25T07:52:43;6.50;99.90
20700;DHT22;10511;51.232;9.420;2024-01-25T07:55:09;6.50;99.90
20700;DHT22;10511;51.232;9.420;2024-01-25T07:57:36;6.40;99.90
20700;DHT22;10511;51.232;9.420;2024-01-25T08:00:05;6.40;99.90
20700;DHT22;10511;51.232;9.420;2024-01-25T08:02:32;6.40;99.90
20700;DHT22;10511;51.232;9.420;2024-01-25T08:05:02;6.40;99.90
20700;DHT22;10511;51.232;9.420;2024-01-25T08:07:45;6.40;99.90
20700;DHT22;10511;51.232;9.420;2024-01-25T08:10:12;6.40;99.90
20700;DHT22;10511;51.232;9.420;2024-01-25T08:12:39;6.40;99.90
20700;DHT22;10511;51.232;9.420;2024-01-25T08:15:09;6.50;99.90
20700;DHT22;10511;51.232;9.420;2024-01-25T08:17:37;6.50;99.90
20700;DHT22;10511;51.232;9.420;2024-01-25T08:20:04;6.50;99.90
20700;DHT22;10511;51.232;9.420;2024-01-25T08:22:32;6.50;99.90
20700;DHT22;10511;51.232;9.420;2024-01-25T08:25:00;6.50;99.90
20700;DHT22;10511;51.232;9.420;2024-01-25T08:27:27;6.50;99.90
20700;DHT22;10511;51.232;9.420;2024-01-25T08:29:54;6.50;99.90
20700;DHT22;10511;51.232;9.420;2024-01-25T08:32:21;6.60;99.90
20700;DHT22;10511;51.232;9.420;2024-01-25T08:34:48;6.60;99.90
20700;DHT22;10511;51.232;9.420;2024-01-25T08:37:15;6.60;99.90
20700;DHT22;10511;51.232;9.420;2024-01-25T08:39:41;6.60;99.90
20700;DHT22;10511;51.232;9.420;2024-01-25T08:42:10;6.60;99.90
20700;DHT22;10511;51.232;9.420;2024-01-25T08:44:38;6.60;99.90
20700;DHT22;10511;51.232;9.420;2024-01-25T08:47:05;6.60;99.90
20700;DHT22;10511;51.232;9.420;2024-01-25T08:49:32;6.60;99.90
20700;DHT22;10511;51.232;9.420;2024-01-25T08:51:59;6.60;99.90
20700;DHT22;10511;51.232;9.420;2024-01-25T08:54:25;6.60;99.90
20700;DHT22;10511;51.232;9.420;2024-01-25T08:56:52;6.70;99.90
20700;DHT22;10511;51.232;9.420;2024-01-25T08:59:21;6.70;99.90
20700;DHT22;10511;51.232;9.420;2024-01-25T09:01:48;6.70;99.90
20700;DHT22;10511;51.232;9.420;2024-01-25T09:04:15;6.60;99.90
20700;DHT22;10511;51.232;9.420;2024-01-25T09:06:41;6.60;99.90
20700;DHT22;10511;51.232;9.420;2024-01-25T09:09:08;6.60;99.90
20700;DHT22;10511;51.232;9.420;2024-01-25T09:11:36;6.70;99.90
20700;DHT22;10511;51.232;9.420;2024-01-25T09:14:03;6.70;99.90
20700;DHT22;10511;51.232;9.420;2024-01-25T09:16:31;6.80;99.90
20700;DHT22;10511;51.232;9.420;2024-01-25T09:18:58;6.70;99.90
20700;DHT22;10511;51.232;9.420;2024-01-25T09:21:26;6.70;99.90
20700;DHT22;10511;51.232;9.420;2024-01-25T09:23:53;6.70;99.90
20700;DHT22;10511;51.232;9.420;2024-01-25T09:26:20;6.70;99.90
20700;DHT22;10511;51.232;9.420;2024-01-25T09:28:46;6.70;99.90
20700;DHT22;10511;51.232;9.420;2024-01-25T09:31:13;6.70;99.90
20700;DHT22;10511;51.232;9.420;2024-01-25T09:33:41;6.70;99.90
20700;DHT22;10511;51.232;9.420;2024-01-25T09:36:08;6.80;99.90
20700;DHT22;10511;51.232;9.420;2024-01-25T09:38:35;6.80;99.90
20700;DHT22;10511;51.232;9.420;2024-01-25T09:41:06;6.80;99.90
20700;DHT22;10511;51.232;9.420;2024-01-25T09:43:33;6.90;99.90
20700;DHT22;10511;51.232;9.420;2024-01-25T09:46:00;7.00;99.90
20700;DHT22;10511;51.232;9.420;2024-01-25T09:48:27;7.00;99.90
20700;DHT22;10511;51.232;9.420;2024-01-25T09:50:55;7.00;99.90
20700;DHT22;10511;51.232;9.420;2024-01-25T09:53:23;7.00;99.90
20700;DHT22;10511;51.232;9.420;2024-01-25T09:55:58;7.10;99.90
20700;DHT22;10511;51.232;9.420;2024-01-25T09:58:34;7.20;99.90
20700;DHT22;10511;51.232;9.420;2024-01-25T10:01:02;7.20;99.90
20700;DHT22;10511;51.232;9.420;2024-01-25T10:03:29;7.10;99.90
20700;DHT22;10511;51.232;9.420;2024-01-25T10:05:59;7.20;99.90
20700;DHT22;10511;51.232;9.420;2024-01-25T10:08:26;7.20;99.90
20700;DHT22;10511;51.232;9.420;2024-01-25T10:10:53;7.20;99.90
20700;DHT22;10511;51.232;9.420;2024-01-25T10:13:20;7.20;99.90
20700;DHT22;10511;51.232;9.420;2024-01-25T10:15:47;7.20;99.90
20700;DHT22;10511;51.232;9.420;2024-01-25T10:18:15;7.20;99.90
20700;DHT22;10511;51.232;9.420;2024-01-25T10:20:42;7.30;99.90
20700;DHT22;10511;51.232;9.420;2024-01-25T10:23:11;7.20;99.90
20700;DHT22;10511;51.232;9.420;2024-01-25T10:25:38;7.20;99.90
20700;DHT22;10511;51.232;9.420;2024-01-25T10:28:05;7.20;99.90
20700;DHT22;10511;51.232;9.420;2024-01-25T10:30:34;7.20;99.90
20700;DHT22;10511;51.232;9.420;2024-01-25T10:33:01;7.20;99.90
20700;DHT22;10511;51.232;9.420;2024-01-25T10:35:30;7.30;99.90
20700;DHT22;10511;51.232;9.420;2024-01-25T10:37:57;7.30;99.90
20700;DHT22;10511;51.232;9.420;2024-01-25T10:40:27;7.40;99.90
20700;DHT22;10511;51.232;9.420;2024-01-25T10:42:55;7.50;99.90
20700;DHT22;10511;51.232;9.420;2024-01-25T10:45:22;7.50;99.90
20700;DHT22;10511;51.232;9.420;2024-01-25T10:47:49;7.50;99.90
20700;DHT22;10511;51.232;9.420;2024-01-25T10:50:16;7.60;99.90
20700;DHT22;10511;51.232;9.420;2024-01-25T10:52:43;7.50;99.90
20700;DHT22;10511;51.232;9.420;2024-01-25T10:55:11;7.60;99.90
20700;DHT22;10511;51.232;9.420;2024-01-25T10:57:42;7.60;99.90
20700;DHT22;10511;51.232;9.420;2024-01-25T11:00:11;7.70;99.90
20700;DHT22;10511;51.232;9.420;2024-01-25T11:02:39;7.60;99.90
20700;DHT22;10511;51.232;9.420;2024-01-25T11:05:08;7.60;99.90
20700;DHT22;10511;51.232;9.420;2024-01-25T11:07:43;7.70;99.90
20700;DHT22;10511;51.232;9.420;2024-01-25T11:10:13;7.60;99.90
20700;DHT22;10511;51.232;9.420;2024-01-25T11:12:48;7.60;99.90
20700;DHT22;10511;51.232;9.420;2024-01-25T11:15:19;7.60;99.90
20700;DHT22;10511;51.232;9.420;2024-01-25T11:17:51;7.70;99.90
20700;DHT22;10511;51.232;9.420;2024-01-25T11:20:21;7.60;99.90
20700;DHT22;10511;51.232;9.420;2024-01-25T11:22:48;7.60;99.90
20700;DHT22;10511;51.232;9.420;2024-01-25T11:25:19;7.60;99.90
20700;DHT22;10511;51.232;9.420;2024-01-25T11:27:49;7.70;99.90
20700;DHT22;10511;51.232;9.420;2024-01-25T11:30:18;7.60;99.90
20700;DHT22;10511;51.232;9.420;2024-01-25T11:32:46;7.70;99.90
20700;DHT22;10511;51.232;9.420;2024-01-25T11:35:13;7.70;99.90
20700;DHT22;10511;51.232;9.420;2024-01-25T11:37:43;7.70;99.90
20700;DHT22;10511;51.232;9.420;2024-01-25T11:40:11;7.70;99.90
20700;DHT22;10511;51.232;9.420;2024-01-25T11:42:38;7.80;99.90
20700;DHT22;10511;51.232;9.420;2024-01-25T11:45:08;7.80;99.90
20700;DHT22;10511;51.232;9.420;2024-01-25T11:47:36;7.70;99.90
20700;DHT22;10511;51.232;9.420;2024-01-25T11:50:04;7.70;99.90
20700;DHT22;10511;51.232;9.420;2024-01-25T11:52:32;7.70;99.90
20700;DHT22;10511;51.232;9.420;2024-01-25T11:54:59;7.70;99.90
20700;DHT22;10511;51.232;9.420;2024-01-25T11:57:26;7.70;99.90
20700;DHT22;10511;51.232;9.420;2024-01-25T11:59:54;7.70;99.90
20700;DHT22;10511;51.232;9.420;2024-01-25T12:02:23;7.70;99.90
20700;DHT22;10511;51.232;9.420;2024-01-25T12:04:51;7.70;99.90
20700;DHT22;10511;51.232;9.420;2024-01-25T12:07:19;7.70;99.90
20700;DHT22;10511;51.232;9.420;2024-01-25T12:09:57;7.80;99.90
20700;DHT22;10511;51.232;9.420;2024-01-25T12:12:24;7.80;99.90
20700;DHT22;10511;51.232;9.420;2024-01-25T12:14:51;7.80;99.90
20700;DHT22;10511;51.232;9.420;2024-01-25T12:17:18;7.80;99.90
20700;DHT22;10511;51.232;9.420;2024-01-25T12:19:46;7.80;99.90
20700;DHT22;10511;51.232;9.420;2024-01-25T12:22:20;7.80;99.90
20700;DHT22;10511;51.232;9.420;2024-01-25T12:24:46;7.80;99.90
20700;DHT22;10511;51.232;9.420;2024-01-25T12:27:15;7.80;99.90
20700;DHT22;10511;51.232;9.420;2024-01-25T12:29:41;7.80;99.90
20700;DHT22;10511;51.232;9.420;2024-01-25T12:32:10;7.90;99.90
20700;DHT22;10511;51.232;9.420;2024-01-25T12:34:36;8.00;99.90
20700;DHT22;10511;51.232;9.420;2024-01-25T12:37:06;8.10;99.90
20700;DHT22;10511;51.232;9.420;2024-01-25T12:39:33;8.10;99.90
20700;DHT22;10511;51.232;9.420;2024-01-25T12:42:00;8.20;99.90
20700;DHT22;10511;51.232;9.420;2024-01-25T12:44:27;8.30;99.90
20700;DHT22;10511;51.232;9.420;2024-01-25T12:46:53;8.30;99.90
20700;DHT22;10511;51.232;9.420;2024-01-25T12:49:20;8.20;99.90
20700;DHT22;10511;51.232;9.420;2024-01-25T12:51:48;8.20;99.90
20700;DHT22;10511;51.232;9.420;2024-01-25T12:54:16;8.30;99.90
20700;DHT22;10511;51.232;9.420;2024-01-25T12:56:43;8.30;99.90
20700;DHT22;10511;51.232;9.420;2024-01-25T12:59:10;8.30;99.90
20700;DHT22;10511;51.232;9.420;2024-01-25T13:01:37;8.40;99.90
20700;DHT22;10511;51.232;9.420;2024-01-25T13:04:04;8.40;99.90
20700;DHT22;10511;51.232;9.420;2024-01-25T13:06:31;8.40;99.90
20700;DHT22;10511;51.232;9.420;2024-01-25T13:08:58;8.20;99.90
20700;DHT22;10511;51.232;9.420;2024-01-25T13:11:26;8.30;99.90
20700;DHT22;10511;51.232;9.420;2024-01-25T13:13:53;8.30;99.90
20700;DHT22;10511;51.232;9.420;2024-01-25T13:16:20;8.30;99.90
20700;DHT22;10511;51.232;9.420;2024-01-25T13:18:47;8.30;99.90
20700;DHT22;10511;51.232;9.420;2024-01-25T13:21:13;8.30;99.90
20700;DHT22;10511;51.232;9.420;2024-01-25T13:23:40;8.30;99.90
20700;DHT22;10511;51.232;9.420;2024-01-25T13:26:07;8.40;99.90
20700;DHT22;10511;51.232;9.420;2024-01-25T13:28:35;8.30;99.90
20700;DHT22;10511;51.232;9.420;2024-01-25T13:31:02;8.20;99.90
20700;DHT22;10511;51.232;9.420;2024-01-25T13:33:29;8.30;99.90
20700;DHT22;10511;51.232;9.420;2024-01-25T13:35:56;8.30;99.90
20700;DHT22;10511;51.232;9.420;2024-01-25T13:38:46;8.20;99.90
20700;DHT22;10511;51.232;9.420;2024-01-25T13:41:26;8.20;99.90
20700;DHT22;10511;51.232;9.420;2024-01-25T13:43:54;8.20;99.90
20700;DHT22;10511;51.232;9.420;2024-01-25T13:46:21;8.10;99.90
20700;DHT22;10511;51.232;9.420;2024-01-25T13:48:48;8.00;99.90
20700;DHT22;10511;51.232;9.420;2024-01-25T13:51:14;8.00;99.90
20700;DHT22;10511;51.232;9.420;2024-01-25T13:53:41;8.00;99.90
20700;DHT22;10511;51.232;9.420;2024-01-25T13:56:08;8.00;99.90
20700;DHT22;10511;51.232;9.420;2024-01-25T13:58:35;8.00;99.90
20700;DHT22;10511;51.232;9.420;2024-01-25T14:01:03;8.10;99.90
20700;DHT22;10511;51.232;9.420;2024-01-25T14:03:30;8.10;99.90
20700;DHT22;10511;51.232;9.420;2024-01-25T14:05:57;8.10;99.90
20700;DHT22;10511;51.232;9.420;2024-01-25T14:08:29;8.00;99.90
20700;DHT22;10511;51.232;9.420;2024-01-25T14:10:56;8.00;99.90
20700;DHT22;10511;51.232;9.420;2024-01-25T14:13:23;8.00;99.90
20700;DHT22;10511;51.232;9.420;2024-01-25T14:15:50;8.00;99.90
20700;DHT22;10511;51.232;9.420;2024-01-25T14:18:18;8.00;99.90
20700;DHT22;10511;51.232;9.420;2024-01-25T14:20:45;8.00;99.90
20700;DHT22;10511;51.232;9.420;2024-01-25T14:23:11;8.00;99.90
20700;DHT22;10511;51.232;9.420;2024-01-25T14:25:38;8.10;99.90
20700;DHT22;10511;51.232;9.420;2024-01-25T14:28:05;8.10;99.90
20700;DHT22;10511;51.232;9.420;2024-01-25T14:30:32;8.10;99.90
20700;DHT22;10511;51.232;9.420;2024-01-25T14:32:59;8.10;99.90
20700;DHT22;10511;51.232;9.420;2024-01-25T14:35:27;8.10;99.90
20700;DHT22;10511;51.232;9.420;2024-01-25T14:37:55;8.00;99.90
20700;DHT22;10511;51.232;9.420;2024-01-25T14:40:22;8.00;99.90
20700;DHT22;10511;51.232;9.420;2024-01-25T14:42:49;7.90;99.90
20700;DHT22;10511;51.232;9.420;2024-01-25T14:45:16;7.90;99.90
20700;DHT22;10511;51.232;9.420;2024-01-25T14:47:43;7.80;99.90
20700;DHT22;10511;51.232;9.420;2024-01-25T14:50:10;7.80;99.90
20700;DHT22;10511;51.232;9.420;2024-01-25T14:52:38;7.80;99.90
20700;DHT22;10511;51.232;9.420;2024-01-25T14:55:05;7.70;99.90
20700;DHT22;10511;51.232;9.420;2024-01-25T14:57:32;7.60;99.90
20700;DHT22;10511;51.232;9.420;2024-01-25T15:00:00;7.60;99.90
20700;DHT22;10511;51.232;9.420;2024-01-25T15:02:27;7.60;99.90
20700;DHT22;10511;51.232;9.420;2024-01-25T15:04:54;7.60;99.90
20700;DHT22;10511;51.232;9.420;2024-01-25T15:07:21;7.50;99.90
20700;DHT22;10511;51.232;9.420;2024-01-25T15:09:49;7.50;99.90
20700;DHT22;10511;51.232;9.420;2024-01-25T15:12:16;7.50;99.90
20700;DHT22;10511;51.232;9.420;2024-01-25T15:14:43;7.40;99.90
20700;DHT22;10511;51.232;9.420;2024-01-25T15:17:10;7.40;99.90
20700;DHT22;10511;51.232;9.420;2024-01-25T15:19:37;7.40;99.90
20700;DHT22;10511;51.232;9.420;2024-01-25T15:22:04;7.30;99.90
20700;DHT22;10511;51.232;9.420;2024-01-25T15:24:31;7.40;99.90
20700;DHT22;10511;51.232;9.420;2024-01-25T15:26:59;7.30;99.90
20700;DHT22;10511;51.232;9.420;2024-01-25T15:29:26;7.30;99.90
20700;DHT22;10511;51.232;9.420;2024-01-25T15:31:53;7.30;99.90
20700;DHT22;10511;51.232;9.420;2024-01-25T15:34:20;7.30;99.90
20700;DHT22;10511;51.232;9.420;2024-01-25T15:36:47;7.30;99.90
20700;DHT22;10511;51.232;9.420;2024-01-25T15:39:14;7.30;99.90
20700;DHT22;10511;51.232;9.420;2024-01-25T15:41:42;7.30;99.90
20700;DHT22;10511;51.232;9.420;2024-01-25T15:44:10;7.30;99.90
20700;DHT22;10511;51.232;9.420;2024-01-25T15:46:37;7.20;99.90